sensor_id;sensor_type;location;lat;lon;timestamp;P1;durP1;ratioP1;P2;durP2;ratioP2
15354;SDS011;7777;52.254;9.618;2023-04-02T00:04:44;9.30;;;4.97;;
15354;SDS011;7777;52.254;9.618;2023-04-02T00:08:14;9.30;;;4.33;;
15354;SDS011;7777;52.254;9.618;2023-04-02T00:11:07;6.70;;;4.03;;
15354;SDS011;7777;52.254;9.618;2023-04-02T00:13:35;10.40;;;4.13;;
15354;SDS011;7777;52.254;9.618;2023-04-02T00:16:11;7.50;;;4.27;;
15354;SDS011;7777;52.254;9.618;2023-04-02T00:18:43;6.37;;;3.53;;
15354;SDS011;7777;52.254;9.618;2023-04-02T00:23:55;8.23;;;4.07;;
15354;SDS011;7777;52.254;9.618;2023-04-02T00:26:30;6.17;;;3.80;;
15354;SDS011;7777;52.254;9.618;2023-04-02T00:29:05;6.47;;;3.43;;
15354;SDS011;7777;52.254;9.618;2023-04-02T00:31:35;7.87;;;4.03;;
15354;SDS011;7777;52.254;9.618;2023-04-02T00:34:06;7.87;;;3.43;;
15354;SDS011;7777;52.254;9.618;2023-04-02T00:36:38;8.47;;;4.90;;
15354;SDS011;7777;52.254;9.618;2023-04-02T00:39:06;9.00;;;4.33;;
15354;SDS011;7777;52.254;9.618;2023-04-02T00:41:43;8.93;;;3.93;;
15354;SDS011;7777;52.254;9.618;2023-04-02T00:44:11;6.93;;;4.07;;
15354;SDS011;7777;52.254;9.618;2023-04-02T00:46:41;7.00;;;3.93;;
15354;SDS011;7777;52.254;9.618;2023-04-02T00:52:05;5.97;;;3.70;;
15354;SDS011;7777;52.254;9.618;2023-04-02T00:54:40;13.97;;;4.93;;
15354;SDS011;7777;52.254;9.618;2023-04-02T00:57:19;10.57;;;3.90;;
15354;SDS011;7777;52.254;9.618;2023-04-02T01:05:45;7.10;;;3.70;;
15354;SDS011;7777;52.254;9.618;2023-04-02T01:08:20;5.20;;;3.17;;
15354;SDS011;7777;52.254;9.618;2023-04-02T01:14:05;7.67;;;3.40;;
15354;SDS011;7777;52.254;9.618;2023-04-02T01:25:44;8.23;;;3.20;;
15354;SDS011;7777;52.254;9.618;2023-04-02T01:28:19;6.53;;;3.47;;
15354;SDS011;7777;52.254;9.618;2023-04-02T01:30:54;11.83;;;3.10;;
15354;SDS011;7777;52.254;9.618;2023-04-02T01:33:23;5.70;;;3.27;;
15354;SDS011;7777;52.254;9.618;2023-04-02T01:36:01;8.43;;;3.27;;
15354;SDS011;7777;52.254;9.618;2023-04-02T01:42:00;8.27;;;3.73;;
15354;SDS011;7777;52.254;9.618;2023-04-02T01:44:40;7.10;;;2.80;;
15354;SDS011;7777;52.254;9.618;2023-04-02T01:47:14;8.33;;;2.70;;
15354;SDS011;7777;52.254;9.618;2023-04-02T01:49:47;10.37;;;2.93;;
15354;SDS011;7777;52.254;9.618;2023-04-02T01:52:25;9.90;;;3.67;;
15354;SDS011;7777;52.254;9.618;2023-04-02T01:55:02;6.87;;;3.63;;
15354;SDS011;7777;52.254;9.618;2023-04-02T01:57:28;6.60;;;3.10;;
15354;SDS011;7777;52.254;9.618;2023-04-02T01:59:54;6.40;;;2.87;;
15354;SDS011;7777;52.254;9.618;2023-04-02T02:02:20;9.60;;;3.80;;
15354;SDS011;7777;52.254;9.618;2023-04-02T02:04:46;11.07;;;3.33;;
15354;SDS011;7777;52.254;9.618;2023-04-02T02:07:13;8.40;;;3.67;;
15354;SDS011;7777;52.254;9.618;2023-04-02T02:09:42;6.93;;;2.90;;
15354;SDS011;7777;52.254;9.618;2023-04-02T02:12:12;11.53;;;3.03;;
15354;SDS011;7777;52.254;9.618;2023-04-02T02:14:43;10.97;;;3.30;;
15354;SDS011;7777;52.254;9.618;2023-04-02T02:17:15;8.93;;;2.87;;
15354;SDS011;7777;52.254;9.618;2023-04-02T02:19:52;5.37;;;2.50;;
15354;SDS011;7777;52.254;9.618;2023-04-02T02:22:28;7.60;;;2.80;;
15354;SDS011;7777;52.254;9.618;2023-04-02T02:24:58;12.00;;;3.33;;
15354;SDS011;7777;52.254;9.618;2023-04-02T02:30:01;6.13;;;2.60;;
15354;SDS011;7777;52.254;9.618;2023-04-02T02:32:39;6.47;;;2.57;;
15354;SDS011;7777;52.254;9.618;2023-04-02T02:35:27;7.73;;;2.47;;
15354;SDS011;7777;52.254;9.618;2023-04-02T02:41:25;4.83;;;2.53;;
15354;SDS011;7777;52.254;9.618;2023-04-02T02:46:32;7.23;;;2.07;;
15354;SDS011;7777;52.254;9.618;2023-04-02T02:49:01;6.50;;;1.90;;
15354;SDS011;7777;52.254;9.618;2023-04-02T02:51:37;5.00;;;2.00;;
15354;SDS011;7777;52.254;9.618;2023-04-02T02:54:09;6.77;;;2.10;;
15354;SDS011;7777;52.254;9.618;2023-04-02T02:56:35;8.67;;;2.30;;
15354;SDS011;7777;52.254;9.618;2023-04-02T02:59:09;6.33;;;2.03;;
15354;SDS011;7777;52.254;9.618;2023-04-02T03:01:37;6.70;;;2.67;;
15354;SDS011;7777;52.254;9.618;2023-04-02T03:04:03;5.27;;;2.40;;
15354;SDS011;7777;52.254;9.618;2023-04-02T03:06:29;7.17;;;2.57;;
15354;SDS011;7777;52.254;9.618;2023-04-02T03:09:01;9.43;;;2.87;;
15354;SDS011;7777;52.254;9.618;2023-04-02T03:14:30;7.70;;;2.63;;
15354;SDS011;7777;52.254;9.618;2023-04-02T03:17:29;4.60;;;2.23;;
15354;SDS011;7777;52.254;9.618;2023-04-02T03:23:26;5.60;;;2.33;;
15354;SDS011;7777;52.254;9.618;2023-04-02T03:26:04;6.27;;;2.13;;
15354;SDS011;7777;52.254;9.618;2023-04-02T03:28:45;4.67;;;1.90;;
15354;SDS011;7777;52.254;9.618;2023-04-02T03:31:21;4.30;;;1.93;;
15354;SDS011;7777;52.254;9.618;2023-04-02T03:34:03;4.33;;;1.70;;
15354;SDS011;7777;52.254;9.618;2023-04-02T03:36:47;9.47;;;2.87;;
15354;SDS011;7777;52.254;9.618;2023-04-02T03:42:22;4.73;;;1.63;;
15354;SDS011;7777;52.254;9.618;2023-04-02T03:47:29;5.30;;;1.60;;
15354;SDS011;7777;52.254;9.618;2023-04-02T03:50:07;6.33;;;2.10;;
15354;SDS011;7777;52.254;9.618;2023-04-02T03:52:56;7.37;;;2.60;;
15354;SDS011;7777;52.254;9.618;2023-04-02T03:55:24;5.30;;;1.70;;
15354;SDS011;7777;52.254;9.618;2023-04-02T04:03:51;3.33;;;1.40;;
15354;SDS011;7777;52.254;9.618;2023-04-02T04:09:06;5.80;;;1.60;;
15354;SDS011;7777;52.254;9.618;2023-04-02T04:11:43;4.80;;;1.53;;
15354;SDS011;7777;52.254;9.618;2023-04-02T04:14:18;5.40;;;2.30;;
15354;SDS011;7777;52.254;9.618;2023-04-02T04:17:23;5.87;;;2.07;;
15354;SDS011;7777;52.254;9.618;2023-04-02T04:22:40;4.23;;;1.60;;
15354;SDS011;7777;52.254;9.618;2023-04-02T04:25:16;6.60;;;1.90;;
15354;SDS011;7777;52.254;9.618;2023-04-02T04:30:57;6.27;;;2.10;;
15354;SDS011;7777;52.254;9.618;2023-04-02T04:33:42;2.93;;;1.50;;
15354;SDS011;7777;52.254;9.618;2023-04-02T04:36:33;5.57;;;1.70;;
15354;SDS011;7777;52.254;9.618;2023-04-02T04:39:12;5.20;;;1.83;;
15354;SDS011;7777;52.254;9.618;2023-04-02T04:41:45;5.43;;;1.90;;
15354;SDS011;7777;52.254;9.618;2023-04-02T04:44:16;3.10;;;1.47;;
15354;SDS011;7777;52.254;9.618;2023-04-02T04:46:50;5.30;;;1.73;;
15354;SDS011;7777;52.254;9.618;2023-04-02T04:54:44;5.33;;;1.80;;
15354;SDS011;7777;52.254;9.618;2023-04-02T04:57:30;3.53;;;1.70;;
15354;SDS011;7777;52.254;9.618;2023-04-02T05:05:27;2.93;;;1.37;;
15354;SDS011;7777;52.254;9.618;2023-04-02T05:07:59;5.30;;;1.73;;
15354;SDS011;7777;52.254;9.618;2023-04-02T05:10:50;4.87;;;1.90;;
15354;SDS011;7777;52.254;9.618;2023-04-02T05:13:27;4.73;;;1.70;;
15354;SDS011;7777;52.254;9.618;2023-04-02T05:16:35;3.87;;;1.63;;
15354;SDS011;7777;52.254;9.618;2023-04-02T05:19:22;5.23;;;2.00;;
15354;SDS011;7777;52.254;9.618;2023-04-02T05:24:41;4.30;;;2.17;;
15354;SDS011;7777;52.254;9.618;2023-04-02T05:29:58;5.17;;;1.63;;
15354;SDS011;7777;52.254;9.618;2023-04-02T05:32:31;4.33;;;1.57;;
15354;SDS011;7777;52.254;9.618;2023-04-02T05:35:01;5.70;;;1.60;;
15354;SDS011;7777;52.254;9.618;2023-04-02T05:37:30;6.37;;;1.67;;
15354;SDS011;7777;52.254;9.618;2023-04-02T05:39:58;3.77;;;1.77;;
15354;SDS011;7777;52.254;9.618;2023-04-02T05:42:35;4.47;;;2.13;;
15354;SDS011;7777;52.254;9.618;2023-04-02T05:45:18;3.97;;;1.50;;
15354;SDS011;7777;52.254;9.618;2023-04-02T05:47:51;3.10;;;1.50;;
15354;SDS011;7777;52.254;9.618;2023-04-02T05:50:28;4.60;;;1.63;;
15354;SDS011;7777;52.254;9.618;2023-04-02T05:52:55;4.10;;;1.60;;
15354;SDS011;7777;52.254;9.618;2023-04-02T05:55:47;3.77;;;1.70;;
15354;SDS011;7777;52.254;9.618;2023-04-02T05:58:28;2.50;;;1.47;;
15354;SDS011;7777;52.254;9.618;2023-04-02T06:01:13;4.60;;;1.50;;
15354;SDS011;7777;52.254;9.618;2023-04-02T06:04:03;5.47;;;2.03;;
15354;SDS011;7777;52.254;9.618;2023-04-02T06:06:46;3.70;;;1.27;;
15354;SDS011;7777;52.254;9.618;2023-04-02T06:09:15;8.13;;;2.23;;
15354;SDS011;7777;52.254;9.618;2023-04-02T06:11:55;6.23;;;2.23;;
15354;SDS011;7777;52.254;9.618;2023-04-02T06:14:32;7.80;;;1.73;;
15354;SDS011;7777;52.254;9.618;2023-04-02T06:16:58;7.50;;;2.00;;
15354;SDS011;7777;52.254;9.618;2023-04-02T06:19:29;6.97;;;2.00;;
15354;SDS011;7777;52.254;9.618;2023-04-02T06:22:06;4.93;;;1.53;;
15354;SDS011;7777;52.254;9.618;2023-04-02T06:25:05;6.07;;;2.20;;
15354;SDS011;7777;52.254;9.618;2023-04-02T06:27:40;7.47;;;2.30;;
15354;SDS011;7777;52.254;9.618;2023-04-02T06:30:18;7.50;;;2.30;;
15354;SDS011;7777;52.254;9.618;2023-04-02T06:32:52;4.43;;;1.80;;
15354;SDS011;7777;52.254;9.618;2023-04-02T06:35:18;7.40;;;2.63;;
15354;SDS011;7777;52.254;9.618;2023-04-02T06:37:44;5.77;;;1.90;;
15354;SDS011;7777;52.254;9.618;2023-04-02T06:43:10;5.27;;;1.80;;
15354;SDS011;7777;52.254;9.618;2023-04-02T06:45:44;7.20;;;2.43;;
15354;SDS011;7777;52.254;9.618;2023-04-02T06:48:15;5.83;;;2.00;;
15354;SDS011;7777;52.254;9.618;2023-04-02T06:53:44;3.80;;;1.50;;
15354;SDS011;7777;52.254;9.618;2023-04-02T06:59:01;4.07;;;1.90;;
15354;SDS011;7777;52.254;9.618;2023-04-02T07:01:29;8.60;;;3.10;;
15354;SDS011;7777;52.254;9.618;2023-04-02T07:04:01;5.53;;;1.77;;
15354;SDS011;7777;52.254;9.618;2023-04-02T07:06:27;3.00;;;1.43;;
15354;SDS011;7777;52.254;9.618;2023-04-02T07:08:52;5.20;;;1.70;;
15354;SDS011;7777;52.254;9.618;2023-04-02T07:11:19;2.63;;;1.67;;
15354;SDS011;7777;52.254;9.618;2023-04-02T07:13:47;6.13;;;2.43;;
15354;SDS011;7777;52.254;9.618;2023-04-02T07:16:15;4.53;;;1.83;;
15354;SDS011;7777;52.254;9.618;2023-04-02T07:18:49;6.50;;;2.07;;
15354;SDS011;7777;52.254;9.618;2023-04-02T07:21:15;6.10;;;2.70;;
15354;SDS011;7777;52.254;9.618;2023-04-02T07:23:41;6.07;;;2.33;;
15354;SDS011;7777;52.254;9.618;2023-04-02T07:26:07;6.13;;;1.77;;
15354;SDS011;7777;52.254;9.618;2023-04-02T07:28:37;6.00;;;1.50;;
15354;SDS011;7777;52.254;9.618;2023-04-02T07:31:03;2.70;;;1.30;;
15354;SDS011;7777;52.254;9.618;2023-04-02T07:33:42;5.13;;;2.10;;
15354;SDS011;7777;52.254;9.618;2023-04-02T07:36:11;6.93;;;2.70;;
15354;SDS011;7777;52.254;9.618;2023-04-02T07:38:40;5.70;;;1.40;;
15354;SDS011;7777;52.254;9.618;2023-04-02T07:41:06;4.93;;;2.63;;
15354;SDS011;7777;52.254;9.618;2023-04-02T07:43:31;4.20;;;2.00;;
15354;SDS011;7777;52.254;9.618;2023-04-02T07:45:57;2.37;;;1.07;;
15354;SDS011;7777;52.254;9.618;2023-04-02T07:48:23;4.00;;;1.30;;
15354;SDS011;7777;52.254;9.618;2023-04-02T07:50:49;3.47;;;1.50;;
15354;SDS011;7777;52.254;9.618;2023-04-02T07:53:28;3.63;;;1.40;;
15354;SDS011;7777;52.254;9.618;2023-04-02T07:56:00;3.20;;;1.47;;
15354;SDS011;7777;52.254;9.618;2023-04-02T07:58:28;3.13;;;1.73;;
15354;SDS011;7777;52.254;9.618;2023-04-02T08:00:55;3.47;;;1.20;;
15354;SDS011;7777;52.254;9.618;2023-04-02T08:03:20;2.17;;;1.20;;
15354;SDS011;7777;52.254;9.618;2023-04-02T08:05:53;1.90;;;1.23;;
15354;SDS011;7777;52.254;9.618;2023-04-02T08:08:22;4.33;;;1.87;;
15354;SDS011;7777;52.254;9.618;2023-04-02T08:10:48;4.70;;;1.40;;
15354;SDS011;7777;52.254;9.618;2023-04-02T08:13:15;5.43;;;1.70;;
15354;SDS011;7777;52.254;9.618;2023-04-02T08:15:43;6.73;;;2.23;;
15354;SDS011;7777;52.254;9.618;2023-04-02T08:18:09;3.27;;;1.27;;
15354;SDS011;7777;52.254;9.618;2023-04-02T08:20:36;5.73;;;1.77;;
15354;SDS011;7777;52.254;9.618;2023-04-02T08:23:02;5.67;;;1.37;;
15354;SDS011;7777;52.254;9.618;2023-04-02T08:25:30;5.60;;;1.50;;
15354;SDS011;7777;52.254;9.618;2023-04-02T08:27:56;2.63;;;1.60;;
15354;SDS011;7777;52.254;9.618;2023-04-02T08:30:22;3.43;;;1.70;;
15354;SDS011;7777;52.254;9.618;2023-04-02T08:32:47;2.90;;;1.47;;
15354;SDS011;7777;52.254;9.618;2023-04-02T08:35:14;5.23;;;1.70;;
15354;SDS011;7777;52.254;9.618;2023-04-02T08:37:40;5.53;;;1.67;;
15354;SDS011;7777;52.254;9.618;2023-04-02T08:40:07;3.80;;;1.57;;
15354;SDS011;7777;52.254;9.618;2023-04-02T08:46:10;3.20;;;1.70;;
15354;SDS011;7777;52.254;9.618;2023-04-02T08:49:12;4.93;;;1.50;;
15354;SDS011;7777;52.254;9.618;2023-04-02T08:51:42;4.03;;;1.60;;
15354;SDS011;7777;52.254;9.618;2023-04-02T08:56:45;4.47;;;1.70;;
15354;SDS011;7777;52.254;9.618;2023-04-02T09:02:11;5.47;;;1.70;;
15354;SDS011;7777;52.254;9.618;2023-04-02T09:04:54;4.27;;;1.13;;
15354;SDS011;7777;52.254;9.618;2023-04-02T09:07:21;3.13;;;1.60;;
15354;SDS011;7777;52.254;9.618;2023-04-02T09:09:48;5.47;;;1.53;;
15354;SDS011;7777;52.254;9.618;2023-04-02T09:12:16;16.13;;;5.43;;
15354;SDS011;7777;52.254;9.618;2023-04-02T09:14:57;2.00;;;1.20;;
15354;SDS011;7777;52.254;9.618;2023-04-02T09:17:46;5.93;;;1.70;;
15354;SDS011;7777;52.254;9.618;2023-04-02T09:20:22;6.20;;;1.93;;
15354;SDS011;7777;52.254;9.618;2023-04-02T09:22:53;4.27;;;1.30;;
15354;SDS011;7777;52.254;9.618;2023-04-02T09:25:21;4.47;;;1.33;;
15354;SDS011;7777;52.254;9.618;2023-04-02T09:27:58;5.43;;;1.80;;
15354;SDS011;7777;52.254;9.618;2023-04-02T09:33:00;4.23;;;1.70;;
15354;SDS011;7777;52.254;9.618;2023-04-02T09:35:31;2.57;;;1.40;;
15354;SDS011;7777;52.254;9.618;2023-04-02T09:38:15;5.93;;;1.57;;
15354;SDS011;7777;52.254;9.618;2023-04-02T09:41:00;5.50;;;2.17;;
15354;SDS011;7777;52.254;9.618;2023-04-02T09:43:32;3.70;;;1.40;;
15354;SDS011;7777;52.254;9.618;2023-04-02T09:46:24;7.93;;;1.67;;
15354;SDS011;7777;52.254;9.618;2023-04-02T09:51:25;5.83;;;1.73;;
15354;SDS011;7777;52.254;9.618;2023-04-02T09:56:35;5.17;;;2.53;;
15354;SDS011;7777;52.254;9.618;2023-04-02T09:59:03;2.87;;;1.40;;
15354;SDS011;7777;52.254;9.618;2023-04-02T10:01:41;3.93;;;1.50;;
15354;SDS011;7777;52.254;9.618;2023-04-02T10:10:21;3.40;;;1.27;;
15354;SDS011;7777;52.254;9.618;2023-04-02T10:13:00;4.70;;;1.80;;
15354;SDS011;7777;52.254;9.618;2023-04-02T10:15:50;3.17;;;1.50;;
15354;SDS011;7777;52.254;9.618;2023-04-02T10:21:33;4.93;;;1.53;;
15354;SDS011;7777;52.254;9.618;2023-04-02T10:24:01;2.53;;;1.33;;
15354;SDS011;7777;52.254;9.618;2023-04-02T10:40:28;5.20;;;1.23;;
15354;SDS011;7777;52.254;9.618;2023-04-02T10:49:09;5.73;;;1.63;;
15354;SDS011;7777;52.254;9.618;2023-04-02T10:57:28;3.13;;;1.13;;
15354;SDS011;7777;52.254;9.618;2023-04-02T11:14:14;5.37;;;1.70;;
15354;SDS011;7777;52.254;9.618;2023-04-02T11:16:45;4.50;;;2.30;;
15354;SDS011;7777;52.254;9.618;2023-04-02T11:22:01;5.80;;;1.80;;
15354;SDS011;7777;52.254;9.618;2023-04-02T11:24:42;10.63;;;5.60;;
15354;SDS011;7777;52.254;9.618;2023-04-02T11:29:40;4.27;;;1.50;;
15354;SDS011;7777;52.254;9.618;2023-04-02T11:42:35;4.47;;;1.20;;
15354;SDS011;7777;52.254;9.618;2023-04-02T11:50:34;3.60;;;1.23;;
15354;SDS011;7777;52.254;9.618;2023-04-02T11:55:42;2.07;;;1.17;;
15354;SDS011;7777;52.254;9.618;2023-04-02T11:58:29;4.60;;;1.53;;
15354;SDS011;7777;52.254;9.618;2023-04-02T12:04:24;2.93;;;1.30;;
15354;SDS011;7777;52.254;9.618;2023-04-02T12:09:34;7.20;;;1.60;;
15354;SDS011;7777;52.254;9.618;2023-04-02T12:12:15;4.03;;;1.57;;
15354;SDS011;7777;52.254;9.618;2023-04-02T12:14:46;3.33;;;1.53;;
15354;SDS011;7777;52.254;9.618;2023-04-02T12:20:03;4.30;;;1.40;;
15354;SDS011;7777;52.254;9.618;2023-04-02T12:22:55;1.97;;;1.03;;
15354;SDS011;7777;52.254;9.618;2023-04-02T12:28:14;2.00;;;1.00;;
15354;SDS011;7777;52.254;9.618;2023-04-02T12:30:45;2.90;;;1.10;;
15354;SDS011;7777;52.254;9.618;2023-04-02T12:33:16;2.63;;;1.30;;
15354;SDS011;7777;52.254;9.618;2023-04-02T12:35:58;4.27;;;1.30;;
15354;SDS011;7777;52.254;9.618;2023-04-02T12:38:26;2.47;;;1.27;;
15354;SDS011;7777;52.254;9.618;2023-04-02T12:41:00;2.33;;;1.10;;
15354;SDS011;7777;52.254;9.618;2023-04-02T12:43:40;4.67;;;1.43;;
15354;SDS011;7777;52.254;9.618;2023-04-02T12:46:06;1.53;;;0.97;;
15354;SDS011;7777;52.254;9.618;2023-04-02T12:48:33;6.37;;;1.10;;
15354;SDS011;7777;52.254;9.618;2023-04-02T12:50:59;4.60;;;1.30;;
15354;SDS011;7777;52.254;9.618;2023-04-02T12:55:59;4.87;;;1.30;;
15354;SDS011;7777;52.254;9.618;2023-04-02T12:58:27;5.93;;;1.67;;
15354;SDS011;7777;52.254;9.618;2023-04-02T13:01:08;2.03;;;0.73;;
15354;SDS011;7777;52.254;9.618;2023-04-02T13:03:37;2.63;;;1.33;;
15354;SDS011;7777;52.254;9.618;2023-04-02T13:06:03;3.17;;;1.50;;
15354;SDS011;7777;52.254;9.618;2023-04-02T13:08:48;3.93;;;1.00;;
15354;SDS011;7777;52.254;9.618;2023-04-02T13:11:14;3.93;;;1.00;;
15354;SDS011;7777;52.254;9.618;2023-04-02T13:13:40;2.90;;;1.00;;
15354;SDS011;7777;52.254;9.618;2023-04-02T13:18:42;2.13;;;0.87;;
15354;SDS011;7777;52.254;9.618;2023-04-02T13:23:38;4.70;;;1.20;;
15354;SDS011;7777;52.254;9.618;2023-04-02T13:28:43;4.03;;;1.57;;
15354;SDS011;7777;52.254;9.618;2023-04-02T13:31:22;3.77;;;1.30;;
15354;SDS011;7777;52.254;9.618;2023-04-02T13:33:48;2.63;;;1.17;;
15354;SDS011;7777;52.254;9.618;2023-04-02T13:36:14;2.30;;;1.00;;
15354;SDS011;7777;52.254;9.618;2023-04-02T13:38:40;3.57;;;1.30;;
15354;SDS011;7777;52.254;9.618;2023-04-02T13:41:27;2.73;;;1.50;;
15354;SDS011;7777;52.254;9.618;2023-04-02T13:43:55;3.70;;;1.10;;
15354;SDS011;7777;52.254;9.618;2023-04-02T13:46:28;2.07;;;1.00;;
15354;SDS011;7777;52.254;9.618;2023-04-02T13:48:56;2.73;;;1.30;;
15354;SDS011;7777;52.254;9.618;2023-04-02T13:51:24;2.33;;;0.83;;
15354;SDS011;7777;52.254;9.618;2023-04-02T13:53:59;3.30;;;1.00;;
15354;SDS011;7777;52.254;9.618;2023-04-02T13:56:25;1.13;;;0.50;;
15354;SDS011;7777;52.254;9.618;2023-04-02T13:58:51;2.57;;;0.90;;
15354;SDS011;7777;52.254;9.618;2023-04-02T14:01:18;2.77;;;1.10;;
15354;SDS011;7777;52.254;9.618;2023-04-02T14:03:48;2.63;;;0.80;;
15354;SDS011;7777;52.254;9.618;2023-04-02T14:06:19;2.80;;;1.00;;
15354;SDS011;7777;52.254;9.618;2023-04-02T14:09:45;1.90;;;0.97;;
15354;SDS011;7777;52.254;9.618;2023-04-02T14:12:31;3.30;;;1.30;;
15354;SDS011;7777;52.254;9.618;2023-04-02T14:15:24;3.40;;;1.40;;
15354;SDS011;7777;52.254;9.618;2023-04-02T14:32:25;3.87;;;0.80;;
15354;SDS011;7777;52.254;9.618;2023-04-02T14:43:15;3.40;;;1.67;;
15354;SDS011;7777;52.254;9.618;2023-04-02T14:46:03;4.93;;;1.60;;
15354;SDS011;7777;52.254;9.618;2023-04-02T14:48:54;2.83;;;1.17;;
15354;SDS011;7777;52.254;9.618;2023-04-02T14:51:26;3.87;;;0.87;;
15354;SDS011;7777;52.254;9.618;2023-04-02T15:05:20;2.80;;;0.90;;
15354;SDS011;7777;52.254;9.618;2023-04-02T15:10:53;3.03;;;0.90;;
15354;SDS011;7777;52.254;9.618;2023-04-02T15:13:35;2.40;;;1.20;;
15354;SDS011;7777;52.254;9.618;2023-04-02T15:16:20;2.53;;;1.00;;
15354;SDS011;7777;52.254;9.618;2023-04-02T15:18:51;2.77;;;1.00;;
15354;SDS011;7777;52.254;9.618;2023-04-02T15:32:39;3.73;;;1.00;;
15354;SDS011;7777;52.254;9.618;2023-04-02T15:35:30;2.07;;;1.00;;
15354;SDS011;7777;52.254;9.618;2023-04-02T15:38:10;2.93;;;0.93;;
15354;SDS011;7777;52.254;9.618;2023-04-02T15:41:10;2.50;;;0.90;;
15354;SDS011;7777;52.254;9.618;2023-04-02T15:43:44;3.40;;;0.83;;
15354;SDS011;7777;52.254;9.618;2023-04-02T15:46:31;2.73;;;0.87;;
15354;SDS011;7777;52.254;9.618;2023-04-02T15:49:28;1.07;;;0.67;;
15354;SDS011;7777;52.254;9.618;2023-04-02T15:52:12;2.63;;;1.10;;
15354;SDS011;7777;52.254;9.618;2023-04-02T15:58:00;1.47;;;0.70;;
15354;SDS011;7777;52.254;9.618;2023-04-02T16:00:31;2.37;;;0.77;;
15354;SDS011;7777;52.254;9.618;2023-04-02T16:03:31;3.20;;;0.70;;
15354;SDS011;7777;52.254;9.618;2023-04-02T16:06:13;4.30;;;1.00;;
15354;SDS011;7777;52.254;9.618;2023-04-02T16:09:06;2.57;;;0.63;;
15354;SDS011;7777;52.254;9.618;2023-04-02T16:11:45;2.43;;;1.00;;
15354;SDS011;7777;52.254;9.618;2023-04-02T16:14:17;2.70;;;1.00;;
15354;SDS011;7777;52.254;9.618;2023-04-02T16:16:49;1.27;;;0.60;;
15354;SDS011;7777;52.254;9.618;2023-04-02T16:19:35;3.93;;;1.23;;
15354;SDS011;7777;52.254;9.618;2023-04-02T16:25:01;2.87;;;1.00;;
15354;SDS011;7777;52.254;9.618;2023-04-02T16:39:03;2.90;;;0.80;;
15354;SDS011;7777;52.254;9.618;2023-04-02T16:51:23;2.13;;;1.03;;
15354;SDS011;7777;52.254;9.618;2023-04-02T16:57:19;3.30;;;1.10;;
15354;SDS011;7777;52.254;9.618;2023-04-02T17:00:02;2.27;;;0.80;;
15354;SDS011;7777;52.254;9.618;2023-04-02T17:02:51;1.63;;;0.67;;
15354;SDS011;7777;52.254;9.618;2023-04-02T17:08:48;4.53;;;2.37;;
15354;SDS011;7777;52.254;9.618;2023-04-02T17:11:22;7.13;;;1.30;;
15354;SDS011;7777;52.254;9.618;2023-04-02T17:13:56;2.60;;;0.80;;
15354;SDS011;7777;52.254;9.618;2023-04-02T17:16:42;4.67;;;1.80;;
15354;SDS011;7777;52.254;9.618;2023-04-02T17:19:15;5.53;;;1.57;;
15354;SDS011;7777;52.254;9.618;2023-04-02T17:21:46;4.50;;;1.20;;
15354;SDS011;7777;52.254;9.618;2023-04-02T17:27:08;3.07;;;1.00;;
15354;SDS011;7777;52.254;9.618;2023-04-02T17:29:42;6.47;;;1.23;;
15354;SDS011;7777;52.254;9.618;2023-04-02T17:32:23;3.00;;;1.00;;
15354;SDS011;7777;52.254;9.618;2023-04-02T17:34:54;4.00;;;1.20;;
15354;SDS011;7777;52.254;9.618;2023-04-02T17:37:32;4.07;;;1.00;;
15354;SDS011;7777;52.254;9.618;2023-04-02T17:46:38;1.73;;;0.70;;
15354;SDS011;7777;52.254;9.618;2023-04-02T17:52:09;2.43;;;1.20;;
15354;SDS011;7777;52.254;9.618;2023-04-02T17:58:23;4.60;;;1.70;;
15354;SDS011;7777;52.254;9.618;2023-04-02T18:06:32;5.63;;;2.07;;
15354;SDS011;7777;52.254;9.618;2023-04-02T18:09:27;5.63;;;2.50;;
15354;SDS011;7777;52.254;9.618;2023-04-02T18:14:57;6.47;;;2.10;;
15354;SDS011;7777;52.254;9.618;2023-04-02T18:21:09;2.83;;;1.43;;
15354;SDS011;7777;52.254;9.618;2023-04-02T18:24:14;4.10;;;2.00;;
15354;SDS011;7777;52.254;9.618;2023-04-02T18:35:52;6.67;;;2.17;;
15354;SDS011;7777;52.254;9.618;2023-04-02T18:41:22;5.47;;;2.23;;
15354;SDS011;7777;52.254;9.618;2023-04-02T18:47:13;2.97;;;1.20;;
15354;SDS011;7777;52.254;9.618;2023-04-02T18:49:49;4.33;;;1.87;;
15354;SDS011;7777;52.254;9.618;2023-04-02T18:52:55;7.23;;;1.70;;
15354;SDS011;7777;52.254;9.618;2023-04-02T18:55:23;3.77;;;1.20;;
15354;SDS011;7777;52.254;9.618;2023-04-02T18:57:58;3.67;;;1.30;;
15354;SDS011;7777;52.254;9.618;2023-04-02T19:00:30;5.53;;;1.50;;
15354;SDS011;7777;52.254;9.618;2023-04-02T19:08:35;2.80;;;1.27;;
15354;SDS011;7777;52.254;9.618;2023-04-02T19:11:15;2.33;;;1.13;;
15354;SDS011;7777;52.254;9.618;2023-04-02T19:13:44;3.13;;;1.23;;
15354;SDS011;7777;52.254;9.618;2023-04-02T19:16:34;3.10;;;1.27;;
15354;SDS011;7777;52.254;9.618;2023-04-02T19:19:39;5.73;;;1.70;;
15354;SDS011;7777;52.254;9.618;2023-04-02T19:28:27;4.47;;;1.30;;
15354;SDS011;7777;52.254;9.618;2023-04-02T19:34:16;3.63;;;1.27;;
15354;SDS011;7777;52.254;9.618;2023-04-02T19:37:11;4.47;;;1.07;;
15354;SDS011;7777;52.254;9.618;2023-04-02T19:42:43;3.40;;;1.27;;
15354;SDS011;7777;52.254;9.618;2023-04-02T19:48:08;3.33;;;1.27;;
15354;SDS011;7777;52.254;9.618;2023-04-02T19:50:54;3.17;;;1.27;;
15354;SDS011;7777;52.254;9.618;2023-04-02T19:53:19;2.70;;;1.17;;
15354;SDS011;7777;52.254;9.618;2023-04-02T19:55:45;5.87;;;1.37;;
15354;SDS011;7777;52.254;9.618;2023-04-02T19:58:27;4.07;;;1.37;;
15354;SDS011;7777;52.254;9.618;2023-04-02T20:00:55;2.87;;;1.10;;
15354;SDS011;7777;52.254;9.618;2023-04-02T20:03:22;3.90;;;1.60;;
15354;SDS011;7777;52.254;9.618;2023-04-02T20:05:48;4.83;;;1.30;;
15354;SDS011;7777;52.254;9.618;2023-04-02T20:08:17;2.53;;;1.10;;
15354;SDS011;7777;52.254;9.618;2023-04-02T20:10:46;3.90;;;1.50;;
15354;SDS011;7777;52.254;9.618;2023-04-02T20:13:14;4.50;;;1.50;;
15354;SDS011;7777;52.254;9.618;2023-04-02T20:15:40;4.43;;;1.20;;
15354;SDS011;7777;52.254;9.618;2023-04-02T20:18:06;3.17;;;1.20;;
15354;SDS011;7777;52.254;9.618;2023-04-02T20:20:33;2.33;;;1.27;;
15354;SDS011;7777;52.254;9.618;2023-04-02T20:23:02;8.23;;;1.30;;
15354;SDS011;7777;52.254;9.618;2023-04-02T20:25:28;3.60;;;1.40;;
15354;SDS011;7777;52.254;9.618;2023-04-02T20:27:57;4.50;;;1.17;;
15354;SDS011;7777;52.254;9.618;2023-04-02T20:30:24;4.73;;;1.10;;
15354;SDS011;7777;52.254;9.618;2023-04-02T20:32:50;4.80;;;1.10;;
15354;SDS011;7777;52.254;9.618;2023-04-02T20:35:17;3.37;;;1.23;;
15354;SDS011;7777;52.254;9.618;2023-04-02T20:37:42;10.87;;;1.97;;
15354;SDS011;7777;52.254;9.618;2023-04-02T20:40:08;4.53;;;1.90;;
15354;SDS011;7777;52.254;9.618;2023-04-02T20:42:37;2.23;;;0.93;;
15354;SDS011;7777;52.254;9.618;2023-04-02T20:45:03;3.77;;;1.67;;
15354;SDS011;7777;52.254;9.618;2023-04-02T20:47:30;4.67;;;1.47;;
15354;SDS011;7777;52.254;9.618;2023-04-02T20:49:59;5.17;;;1.23;;
15354;SDS011;7777;52.254;9.618;2023-04-02T20:52:24;4.23;;;1.10;;
15354;SDS011;7777;52.254;9.618;2023-04-02T20:54:54;3.27;;;1.10;;
15354;SDS011;7777;52.254;9.618;2023-04-02T20:57:20;3.23;;;1.33;;
15354;SDS011;7777;52.254;9.618;2023-04-02T20:59:46;4.90;;;1.80;;
15354;SDS011;7777;52.254;9.618;2023-04-02T21:02:12;6.13;;;1.33;;
15354;SDS011;7777;52.254;9.618;2023-04-02T21:04:38;2.87;;;1.20;;
15354;SDS011;7777;52.254;9.618;2023-04-02T21:07:04;2.87;;;1.17;;
15354;SDS011;7777;52.254;9.618;2023-04-02T21:09:30;5.53;;;1.63;;
15354;SDS011;7777;52.254;9.618;2023-04-02T21:11:56;5.23;;;1.73;;
15354;SDS011;7777;52.254;9.618;2023-04-02T21:14:21;2.33;;;0.97;;
15354;SDS011;7777;52.254;9.618;2023-04-02T21:16:47;7.83;;;1.33;;
15354;SDS011;7777;52.254;9.618;2023-04-02T21:19:13;4.20;;;1.60;;
15354;SDS011;7777;52.254;9.618;2023-04-02T21:21:39;4.77;;;1.43;;
15354;SDS011;7777;52.254;9.618;2023-04-02T21:24:05;4.87;;;1.23;;
15354;SDS011;7777;52.254;9.618;2023-04-02T21:26:34;6.33;;;1.83;;
15354;SDS011;7777;52.254;9.618;2023-04-02T21:29:03;3.50;;;1.60;;
15354;SDS011;7777;52.254;9.618;2023-04-02T21:31:32;3.07;;;1.33;;